• Join FlightAware (Why Join?)
  • Login
  • US Flag 
03:58PM EST


 

Airport Tracker/Info


-or-


 

Live Flight TrackerFlight Track Log ✈ AVN11 ✈ 26-Jun-2014 ✈ YSSY / SYD - NVVV / VLI

Flight Track Log - Related Links

Times and Time Zones

All times are in EDT time to prevent confusion due to time zone crossing. See the AVN11 flight status page for this flight to view local times or setup timezone preferences in your user account.

Time Position Orientation Groundspeed Altitude Reporting Facility
EDT Latitude Longitude Course Direction KTS MPH feet Rate Location/Type
09:23PM -33.9480 151.1879 348° North 166 191 200  Level FlightAware ADS-B
09:23PM -33.9353 151.1861 North 169 194 1,100 2,667 Climbing FlightAware ADS-B
09:23PM -33.9289 151.1893 33° Northeast 179 206 1,400 1,636 Climbing FlightAware ADS-B
09:23PM -33.9258 151.1928 49° Northeast 178 205 1,400 1,385 Level FlightAware ADS-B
09:23PM -33.9289 151.1893 66° East 190 219 1,700 1,895 Climbing FlightAware ADS-B
09:24PM -33.9228 151.2132 100° East 206 237 2,000 1,600 Climbing FlightAware ADS-B
09:24PM -33.9246 151.2188 112° Southeast 208 239 2,100 1,000 Climbing FlightAware ADS-B (YRAY)
09:24PM -33.9324 151.2390 115° Southeast 235 270 2,400 1,500 Climbing FlightAware ADS-B
09:24PM -33.9364 151.2517 105° East 244 281 2,800 2,182 Climbing FlightAware ADS-B
09:24PM -33.9379 151.2651 90° East 258 297 3,200 2,400 Climbing FlightAware ADS-B (YRAY)
09:24PM -33.9377 151.2750 88° East 262 302 3,400 2,308 Climbing FlightAware ADS-B (YPLB)
09:25PM -33.9375 151.2819 87° East 270 311 3,700 1,429 Climbing FlightAware ADS-B (YPLB)
09:25PM -33.9369 151.3076 88° East 289 333 3,900 1,429 Climbing FlightAware ADS-B (YPLB)
09:25PM -33.9364 151.3220 89° East 299 344 4,200 1,263 Climbing FlightAware ADS-B
09:25PM -33.9359 151.3398 87° East 316 364 4,300 1,200 Climbing FlightAware ADS-B (YPLB)
09:25PM -33.9352 151.3677 88° East 340 391 4,700 1,125 Climbing FlightAware ADS-B
09:26PM -33.9341 151.4011 87° East 351 404 4,900 222 Climbing FlightAware ADS-B (YPLB)
09:26PM -33.9332 151.4220 86° East 346 398 4,800 207 Descending FlightAware ADS-B (YPLB)
09:26PM -33.9318 151.4532 87° East 347 399 5,000 1,091 Climbing FlightAware ADS-B (YSRI)
09:26PM -33.9314 151.4611 87° East 362 417 5,200 1,429 Climbing FlightAware ADS-B (YSRI)
09:26PM -33.9299 151.4939 87° East 368 423 5,500 3,081 Climbing FlightAware ADS-B
09:27PM -33.9282 151.5345 87° East 347 399 7,100 4,065 Climbing FlightAware ADS-B (YSRI)
09:27PM -33.9271 151.5590 86° East 353 406 7,600 2,000 Climbing FlightAware ADS-B (YPLB)
09:27PM -33.9259 151.5883 87° East 368 423 8,000 1,818 Climbing FlightAware ADS-B (YSRI)
09:28PM -33.9246 151.6227 87° East 376 433 8,600 2,500 Climbing FlightAware ADS-B (YSRI)
09:28PM -33.9245 151.6271 88° East 382 440 9,000 2,571 Climbing FlightAware ADS-B (YSRI)
09:28PM -33.9236 151.6498 88° East 382 440 9,200 3,158 Climbing FlightAware ADS-B (YSRI)
09:28PM -33.9207 151.7247 87° East 381 438 11,000 3,000 Climbing FlightAware ADS-B (YPLB)
09:29PM -33.9183 151.7813 87° East 389 448 12,300 2,550 Climbing FlightAware ADS-B (YSRI)
09:29PM -33.9170 151.8081 86° East 391 450 12,700 2,308 Climbing FlightAware ADS-B (YPLB)
09:29PM -33.9146 151.8703 87° East 404 465 13,800 2,400 Climbing FlightAware ADS-B (YSRI)
09:30PM -33.9117 151.9399 87° East 408 470 15,100 2,516 Climbing FlightAware ADS-B (YSRI)
09:30PM -33.9087 152.0119 87° East 417 480 16,400 2,032 Climbing FlightAware ADS-B (YSRI)
09:31PM -33.9049 152.0852 82° East 430 495 17,200 1,650 Climbing FlightAware ADS-B (YPLB)
09:31PM -33.9016 152.1073 79° East 434 499 17,500 1,765 Climbing FlightAware ADS-B (YSRI)
09:32PM -33.8869 152.1621 68° East 447 514 18,200 2,000 Climbing FlightAware ADS-B (YSRI)
09:32PM -33.8550 152.2495 66° East 456 525 19,500 2,000 Climbing FlightAware ADS-B (YPLB)
09:33PM -33.8320 152.3127 67° East 464 534 20,400 1,902 Climbing FlightAware ADS-B
09:33PM -33.8218 152.3407 67° East 468 539 20,800 1,875 Climbing FlightAware ADS-B (YSRI)
09:33PM -33.7866 152.4382 66° East 479 551 21,900 1,660 Climbing FlightAware ADS-B (YPLB)
09:34PM -33.7786 152.4605 66° East 481 554 22,100 1,463 Climbing FlightAware ADS-B (YPLB)
09:34PM -33.7516 152.5353 66° East 491 565 22,900 1,522 Climbing FlightAware ADS-B (YPLB)
09:35PM -33.7194 152.6244 67° East 502 578 23,800 1,521 Climbing FlightAware ADS-B
09:35PM -33.6861 152.7164 66° East 510 587 24,700 1,562 Climbing FlightAware ADS-B (YPLB)
09:36PM -33.6503 152.8157 66° East 516 594 25,700 1,457 Climbing FlightAware ADS-B (YPLB)
09:36PM -33.6193 152.9008 66° East 521 600 26,400 1,455 Climbing FlightAware ADS-B (YPLB)
09:37PM -33.5870 152.9877 66° East 522 601 27,300 1,385 Climbing Aus ATC (RADAR)
09:37PM -33.5804 153.0069 66° East 526 605 27,300 1,200 Level FlightAware ADS-B (YPLB)
09:38PM -33.5518 153.0848 66° East 529 609 28,000 1,279 Climbing FlightAware ADS-B (YPLB)
09:38PM -33.5198 153.1716 66° East 535 616 28,600 930 Climbing FlightAware ADS-B (YPLB)
09:39PM -33.4805 153.2780 66° East 545 627 29,100 692 Climbing FlightAware ADS-B (YPLB)
09:39PM -33.4419 153.3821 66° East 556 640 29,500 923 Climbing FlightAware ADS-B (YPLB)
09:39PM -33.4419 153.3826 66° East 551 634 29,700 968 Climbing Aus ATC (RADAR)
09:40PM -33.4098 153.4681 66° East 563 648 30,000 900 Climbing FlightAware ADS-B
09:40PM -33.3761 153.5581 65° Northeast 561 646 30,600 1,452 Climbing FlightAware ADS-B (YPLB)
09:41PM -33.3451 153.6407 66° East 556 640 31,500 1,629 Climbing FlightAware ADS-B
09:42PM -33.3049 153.7484 66° East 551 634 32,500 1,538 Climbing Aus ATC (RADAR)
09:42PM -33.3017 153.7564 65° Northeast 550 633 32,500 1,263 Level FlightAware ADS-B (YPLB)
09:42PM -33.2826 153.8072 65° Northeast 547 629 32,900 1,224 Climbing FlightAware ADS-B (YPLB)
09:42PM -33.2511 153.8907 65° Northeast 546 628 33,500 1,180 Climbing FlightAware ADS-B (YPLB)
09:43PM -33.2200 153.9731 65° Northeast 543 625 34,100 1,200 Climbing FlightAware ADS-B (YPLB)
09:43PM -33.1887 154.0554 65° Northeast 539 620 34,700 900 Climbing FlightAware ADS-B (YPLB)
09:44PM -33.1597 154.1318 65° Northeast 537 618 35,000 295 Climbing FlightAware ADS-B (YPLB)
09:44PM -33.1276 154.2163 65° Northeast 537 618 35,000  Level FlightAware ADS-B (YPLB)
09:45PM -33.0957 154.2997 65° Northeast 537 618 35,000  Level FlightAware ADS-B (YPLB)
09:45PM -33.0853 154.3268 65° Northeast 536 617 35,000  Level FlightAware ADS-B (YPLB)
09:46PM -33.0633 154.3842 65° Northeast 534 615 35,000  Level FlightAware ADS-B (YPLB)
09:46PM -33.0135 154.5141 65° Northeast 533 613 35,000  Level FlightAware ADS-B (YPLB)
09:47PM -32.9838 154.5911 65° Northeast 531 611 35,000  Level FlightAware ADS-B (YPLB)
09:47PM -32.9627 154.6460 65° Northeast 530 610 35,000 -480 Level FlightAware ADS-B (YPLB)
09:48PM -32.9324 154.7249 65° Northeast 532 612 34,600 -800 Descending FlightAware ADS-B (YPLB)
09:48PM -32.9193 154.7587 66° East 532 612 34,400 -794 Descending FlightAware ADS-B
09:49PM -32.8605 154.9044 66° East 535 616 33,700 -1,091 Descending Aus ATC (RADAR)
09:49PM -32.8580 154.9062 56° Northeast 533 613 33,400 -1,313 Descending FlightAware ADS-B (YPLB)
09:49PM -32.8091 154.9750 43° Northeast 512 589 33,000 -885 Descending FlightAware ADS-B (YPLB)
09:50PM -32.7549 155.0286 39° Northeast 507 583 32,500 -1,000 Descending FlightAware ADS-B (YPLB)
09:50PM -32.6994 155.0835 40° Northeast 513 590 32,000 -1,000 Descending FlightAware ADS-B (YPLB)
09:51PM -32.6451 155.1370 39° Northeast 516 594 31,500 -762 Descending FlightAware ADS-B (YPLB)
09:51PM -32.5857 155.1947 39° Northeast 515 593 31,200 -638 Descending Aus ATC (RADAR)
09:52PM -32.5570 155.2231 39° Northeast 520 598 31,000 -255 Descending FlightAware ADS-B (YPLB)
09:52PM -32.4965 155.2823 39° Northeast 517 595 31,000  Level FlightAware ADS-B (YPLB)
09:53PM -32.4436 155.3337 39° Northeast 517 595 31,000  Level FlightAware ADS-B (YPLB)
09:53PM -32.4125 155.3639 39° Northeast 515 593 31,000 167 Level FlightAware ADS-B (YPLB)
09:54PM -32.2433 155.5256 39° Northeast 518 596 31,300 182 Climbing Aus ATC (RADAR)
09:55PM -32.1987 155.5699 40° Northeast 510 587 31,300  Level Aus ATC (RADAR)
09:55PM -32.1347 155.6314 39° Northeast 511 588 31,300 -58 Level Aus ATC (RADAR)
09:57PM -32.0062 155.7545 39° Northeast 511 588 31,200  Descending Aus ATC (RADAR)
09:57PM -31.9601 155.7986 39° Northeast 513 590 31,300 94 Climbing Aus ATC (RADAR)
09:58PM -31.8917 155.8643 39° Northeast 497 572 31,300  Level Aus ATC (RADAR)
09:58PM -31.8238 155.9295 39° Northeast 510 587 31,300  Level Aus ATC (RADAR)
09:59PM -31.7535 155.9952 38° Northeast 497 572 31,300 -67 Level Aus ATC (RADAR)
10:00PM -31.6587 156.0865 39° Northeast 511 588 31,200 -85 Descending Aus ATC (RADAR)
10:00PM -31.6219 156.1212 39° Northeast 511 588 31,200  Level Aus ATC (RADAR)
10:01PM -31.5576 156.1822 39° Northeast 511 588 31,200  Level Aus ATC (RADAR)
10:02PM -31.4449 156.3064 43° Northeast 514 592 31,200  Level Aus ATC (RADAR)
10:02PM -31.4097 156.3455 43° Northeast 518 596 31,200  Level Aus ATC (RADAR)
10:03PM -31.3507 156.4133 44° Northeast 515 593 31,200 -75 Level Aus ATC (RADAR)
10:03PM -31.2740 156.4998 44° Northeast 512 589 31,100  Descending Aus ATC (RADAR)
10:04PM -31.2140 156.5662 43° Northeast 510 587 31,200 86 Climbing Aus ATC (RADAR)
10:05PM -31.1541 156.6321 43° Northeast 509 586 31,200  Level Aus ATC (RADAR)
10:05PM -31.0895 156.7067 45° Northeast 500 575 31,200  Level Aus ATC (RADAR)
10:06PM -31.0226 156.7812 44° Northeast 500 575 31,200  Level Aus ATC (RADAR)
10:07PM -30.8974 156.9212 44° Northeast 500 575 31,200  Level Aus ATC (RADAR)
10:08PM -30.8555 156.9677 44° Northeast 499 574 31,200 -92 Level Aus ATC (RADAR)
10:08PM -30.7884 157.0421 44° Northeast 499 574 31,100  Descending Aus ATC (RADAR)
10:09PM -30.7298 157.1073 44° Northeast 500 575 31,200 86 Climbing Aus ATC (RADAR)
10:09PM -30.6712 157.1724 44° Northeast 500 575 31,200 -75 Level Aus ATC (RADAR)
10:10PM -30.5975 157.2548 44° Northeast 493 567 31,100  Descending Aus ATC (RADAR)
10:11PM -30.5483 157.3093 44° Northeast 490 564 31,200 63 Climbing Aus ATC (RADAR)
10:12PM -30.4387 157.4296 43° Northeast 496 571 31,200  Level Aus ATC (RADAR)
10:12PM -30.3796 157.4950 44° Northeast 500 575 31,200  Level Aus ATC (RADAR)
10:13PM -30.3535 157.5237 44° Northeast 502 578 31,200  Level Aus ATC (RADAR)
10:13PM -30.3026 157.5795 43° Northeast 503 579 31,200 -75 Level Aus ATC (RADAR)
10:14PM -30.2180 157.6722 43° Northeast 502 578 31,100 -71 Descending Aus ATC (RADAR)
10:14PM -30.1587 157.7363 43° Northeast 502 578 31,100 80 Level Aus ATC (RADAR)
10:15PM -30.0922 157.8094 44° Northeast 488 562 31,200 150 Climbing Aus ATC (RADAR)
10:22PM -29.4250 158.5273 40° Northeast 32,000 120 Climbing Aus ATC (Calculated)
10:24PM -29.2564 158.6867 40° Northeast  Level Estimated
10:25PM -29.1571 158.7802 39° Northeast  Level Estimated
10:25PM -29.1516 158.8176 39° Northeast 32,000  Level Aus ATC (Calculated)
10:27PM -28.9609 158.9959 39° Northeast  Level Estimated
10:27PM -28.8948 159.0883 North 32,000  Level Aus ATC (Calculated)
10:28PM -28.8612 159.0886 39° Northeast  Level Estimated
10:29PM -28.7251 159.2453 39° Northeast  Level Estimated
10:30PM -28.6251 159.3375 39° Northeast  Level Estimated
10:31PM -28.5252 159.4295 39° Northeast  Level Estimated
10:31PM -28.4721 159.5296 39° Northeast 32,000  Level Aus ATC (Calculated)
10:33PM -28.3183 159.6696 39° Northeast  Level Estimated
10:34PM -28.2179 159.7607 39° Northeast  Level Estimated
10:35PM -28.1174 159.8517 39° Northeast  Level Estimated
10:36PM -28.0169 159.9424 39° Northeast  Level Estimated
10:36PM -27.9323 160.0860 38° Northeast 32,000  Level Aus ATC (Calculated)
10:38PM -27.7758 160.2254 38° Northeast  Level Estimated
10:38PM -27.7068 160.3162 42° Northeast 32,000  Level Aus ATC (Calculated)
10:39PM -27.6223 160.4020 38° Northeast 32,000  Level Aus ATC (Calculated)
10:41PM -27.4737 160.5328 38° Northeast  Level Estimated
10:42PM -27.3722 160.6217 38° Northeast  Level Estimated
10:43PM -27.2708 160.7105 38° Northeast  Level Estimated
10:43PM -27.2229 160.8055 42° Northeast 32,000  Level Aus ATC (Calculated)
10:44PM -27.0838 160.9452 North 32,000  Level Aus ATC (Calculated)
10:45PM -27.0566 160.9494 38° Northeast  Level Estimated
10:46PM -26.9562 161.0548 37° Northeast  Level Estimated
10:46PM -26.8878 161.1409 37° Northeast 32,000  Level Aus ATC (Calculated)
10:48PM -26.7600 161.2500 37° Northeast  Level Estimated
10:48PM -26.7693 161.2589 37° Northeast 32,000  Level Aus ATC (Calculated)
10:49PM -26.6669 161.3458 37° Northeast  Level Estimated
10:50PM -26.5644 161.4326 37° Northeast  Level Estimated
10:50PM -26.5468 161.4794 37° Northeast 32,000  Level Aus ATC (Calculated)
10:51PM -26.4441 161.5658 37° Northeast  Level Estimated
10:52PM -26.3413 161.6519 37° Northeast  Level Estimated
10:53PM -26.2385 161.7379 37° Northeast  Level Estimated
10:54PM -26.1435 161.8345 42° Northeast  Level FlightAware Approximate
10:55PM -26.0485 161.9308 42° Northeast  Level FlightAware Approximate
10:56PM -25.9534 162.0271 42° Northeast  Level FlightAware Approximate
10:57PM -25.8583 162.1231 42° Northeast  Level FlightAware Approximate
10:58PM -25.7631 162.2191 42° Northeast  Level FlightAware Approximate
10:59PM -25.6678 162.3148 42° Northeast  Level FlightAware Approximate
11:00PM -25.5725 162.4104 42° Northeast  Level FlightAware Approximate
11:00PM -25.5203 162.4818 41° Northeast 32,000  Level Aus ATC (Calculated)
11:02PM -25.3312 162.6638 41° Northeast  Level FlightAware Approximate
11:03PM -25.2341 162.7570 41° Northeast  Level FlightAware Approximate
11:04PM -25.1369 162.8500 41° Northeast  Level FlightAware Approximate
11:05PM -25.0397 162.9429 41° Northeast  Level FlightAware Approximate
11:06PM -24.9425 163.0356 41° Northeast  Level FlightAware Approximate
11:07PM -24.9100 163.0780 45° Northeast  Level FlightAware Approximate
11:08PM -24.8196 163.1788 45° Northeast  Level FlightAware Approximate
11:09PM -24.7292 163.2794 45° Northeast  Level FlightAware Approximate
11:10PM -24.6387 163.3798 45° Northeast  Level FlightAware Approximate
11:11PM -24.5481 163.4801 45° Northeast  Level FlightAware Approximate
11:12PM -24.4574 163.5802 45° Northeast  Level FlightAware Approximate
11:13PM -24.3667 163.6802 45° Northeast  Level FlightAware Approximate
11:14PM -24.2759 163.7801 45° Northeast  Level FlightAware Approximate
11:15PM -24.1851 163.8798 45° Northeast  Level FlightAware Approximate
11:16PM -24.0942 163.9794 45° Northeast  Level FlightAware Approximate
11:17PM -24.0032 164.0788 45° Northeast  Level FlightAware Approximate
11:18PM -23.9122 164.1781 45° Northeast  Level FlightAware Approximate
11:19PM -23.8211 164.2773 45° Northeast  Level FlightAware Approximate
11:20PM -23.7300 164.3763 45° Northeast  Level FlightAware Approximate
11:21PM -23.6387 164.4752 45° Northeast  Level FlightAware Approximate
11:22PM -23.5474 164.5739 45° Northeast  Level FlightAware Approximate
11:23PM -23.4561 164.6725 45° Northeast  Level FlightAware Approximate
11:24PM -23.3647 164.7710 45° Northeast  Level FlightAware Approximate
11:25PM -23.2732 164.8693 45° Northeast  Level FlightAware Approximate
11:26PM -23.1816 164.9674 45° Northeast  Level FlightAware Approximate
11:27PM -23.0900 165.0655 45° Northeast  Level FlightAware Approximate
11:28PM -22.9984 165.1634 45° Northeast  Level FlightAware Approximate
11:29PM -22.9066 165.2611 44° Northeast  Level FlightAware Approximate
11:30PM -22.8148 165.3588 44° Northeast  Level FlightAware Approximate
11:31PM -22.7230 165.4563 44° Northeast  Level FlightAware Approximate
11:32PM -22.6311 165.5537 44° Northeast  Level FlightAware Approximate
11:33PM -22.5391 165.6509 44° Northeast  Level FlightAware Approximate
11:34PM -22.4471 165.7480 44° Northeast  Level FlightAware Approximate
11:35PM -22.3550 165.8450 44° Northeast  Level FlightAware Approximate
11:36PM -22.2628 165.9419 44° Northeast  Level FlightAware Approximate
11:37PM -22.1706 166.0386 44° Northeast  Level FlightAware Approximate
11:38PM -22.0784 166.1352 44° Northeast  Level FlightAware Approximate
11:39PM -21.9809 166.2234 24° Northeast  Level FlightAware Approximate
11:40PM -21.8635 166.2798 24° Northeast  Level FlightAware Approximate
11:41PM -21.7460 166.3360 24° Northeast  Level FlightAware Approximate
11:42PM -21.6286 166.3922 24° Northeast  Level FlightAware Approximate
11:43PM -21.5111 166.4483 24° Northeast  Level FlightAware Approximate
11:44PM -21.3936 166.5042 24° Northeast  Level FlightAware Approximate
11:45PM -21.2761 166.5601 24° Northeast  Level FlightAware Approximate
11:46PM -21.1585 166.6159 24° Northeast  Level FlightAware Approximate
11:47PM -21.0410 166.6716 24° Northeast  Level FlightAware Approximate
11:48PM -20.9234 166.7273 24° Northeast  Level FlightAware Approximate
11:49PM -20.8058 166.7828 24° Northeast  Level FlightAware Approximate
11:50PM -20.6882 166.8383 24° Northeast  Level FlightAware Approximate
11:51PM -20.5706 166.8936 24° Northeast  Level FlightAware Approximate
11:52PM -20.4529 166.9489 24° Northeast  Level FlightAware Approximate
11:53PM -20.3353 167.0041 24° Northeast  Level FlightAware Approximate
11:54PM -20.2176 167.0592 24° Northeast  Level FlightAware Approximate
11:55PM -20.0999 167.1142 24° Northeast  Level FlightAware Approximate
11:56PM -19.9822 167.1692 24° Northeast  Level FlightAware Approximate
11:57PM -19.8645 167.2240 24° Northeast  Level FlightAware Approximate
11:58PM -19.7467 167.2788 24° Northeast  Level FlightAware Approximate
11:59PM -19.6290 167.3335 24° Northeast  Level FlightAware Approximate
12:00AM -19.5112 167.3882 24° Northeast  Level FlightAware Approximate
12:01AM -19.3935 167.4430 24° Northeast  Level FlightAware Approximate
12:02AM -19.2759 167.4979 24° Northeast  Level FlightAware Approximate
12:03AM -19.1582 167.5526 24° Northeast  Level FlightAware Approximate
12:04AM -19.0405 167.6073 24° Northeast  Level FlightAware Approximate
12:05AM -18.9228 167.6619 24° Northeast  Level FlightAware Approximate
12:06AM -18.8051 167.7165 24° Northeast  Level FlightAware Approximate
12:07AM -18.6874 167.7709 24° Northeast  Level FlightAware Approximate
12:08AM -18.5696 167.8253 24° Northeast  Level FlightAware Approximate
12:09AM -18.4520 167.8798 24° Northeast  Level FlightAware Approximate
12:10AM -18.3343 167.9343 24° Northeast  Level FlightAware Approximate
12:11AM -18.2166 167.9887 24° Northeast  Level FlightAware Approximate
12:12AM -18.0989 168.0430 24° Northeast  Level FlightAware Approximate
12:13AM -17.9812 168.0973 24° Northeast  Level FlightAware Approximate
12:14AM -17.8634 168.1515 24° Northeast  Level FlightAware Approximate
12:15AM -17.7457 168.2056 24° Northeast  Level FlightAware Approximate
12:16AM -17.6621 168.2439 24° Northeast  Level FlightAware Approximate
12:17AM -17.6993 168.3198 117° Southeast  Level Estimated
12:18AM -17.6993 168.3198 24° Northeast  Level Estimated
12:19AM -17.6993 168.3198 North  Level Estimated
12:20AM -17.6993 168.3198 24° Northeast  Level Estimated
12:21AM -17.6993 168.3198 North  Level Estimated
12:22AM -17.6993 168.3198 24° Northeast  Level Estimated
12:23AM -17.6993 168.3198 North  Level Estimated
12:24AM -17.6993 168.3198 24° Northeast  Level Estimated
12:25AM -17.6993 168.3198 North  Level Estimated
12:26AM -17.6993 168.3198 24° Northeast  Level Estimated
12:27AM -17.6993 168.3198 North  Level Estimated
12:28AM -17.6993 168.3198 24° Northeast  Level Estimated
12:29AM -17.6993 168.3198 North  Level Estimated
12:30AM -17.6993 168.3198 24° Northeast  Level Estimated
12:31AM -17.6993 168.3198 North  Level Estimated
12:32AM -17.6993 168.3198 24° Northeast  Level Estimated